sensor_id;sensor_type;location;lat;lon;timestamp;pressure;altitude;pressure_sealevel;temperature;humidity
28432;BME280;15664;51.302;7.744;2023-04-03T00:01:00;83870.03;;;-146.98;99.18
28432;BME280;15664;51.302;7.744;2023-04-03T00:03:26;83965.75;;;-146.98;99.12
28432;BME280;15664;51.302;7.744;2023-04-03T00:05:52;83992.22;;;-146.98;99.27
28432;BME280;15664;51.302;7.744;2023-04-03T00:08:18;83922.97;;;-146.98;99.44
28432;BME280;15664;51.302;7.744;2023-04-03T00:10:44;83935.19;;;-146.98;98.52
28432;BME280;15664;51.302;7.744;2023-04-03T00:13:10;83957.59;;;-146.98;98.51
28432;BME280;15664;51.302;7.744;2023-04-03T00:15:36;83951.50;;;-146.98;98.53
28432;BME280;15664;51.302;7.744;2023-04-03T00:18:02;83943.34;;;-146.98;98.69
28432;BME280;15664;51.302;7.744;2023-04-03T00:20:29;83914.84;;;-146.98;99.16
28432;BME280;15664;51.302;7.744;2023-04-03T00:22:54;83931.13;;;-146.98;99.47
28432;BME280;15664;51.302;7.744;2023-04-03T00:25:20;83941.31;;;-146.98;100.00
28432;BME280;15664;51.302;7.744;2023-04-03T00:27:45;83951.50;;;-146.98;100.00
28432;BME280;15664;51.302;7.744;2023-04-03T00:30:14;83927.06;;;-146.98;100.00
28432;BME280;15664;51.302;7.744;2023-04-03T00:32:39;83961.69;;;-146.98;100.00
28432;BME280;15664;51.302;7.744;2023-04-03T00:35:06;83969.81;;;-146.98;100.00
28432;BME280;15664;51.302;7.744;2023-04-03T00:37:31;83994.28;;;-146.98;100.00
28432;BME280;15664;51.302;7.744;2023-04-03T00:39:57;83961.69;;;-146.98;100.00
28432;BME280;15664;51.302;7.744;2023-04-03T00:42:23;83951.50;;;-146.98;100.00
28432;BME280;15664;51.302;7.744;2023-04-03T00:47:16;83949.47;;;-146.98;100.00
28432;BME280;15664;51.302;7.744;2023-04-03T00:49:44;83975.94;;;-146.98;100.00
28432;BME280;15664;51.302;7.744;2023-04-03T00:52:13;84002.41;;;-146.98;100.00
28432;BME280;15664;51.302;7.744;2023-04-03T00:54:43;83947.41;;;-146.98;100.00
28432;BME280;15664;51.302;7.744;2023-04-03T00:57:09;83973.91;;;-146.98;100.00
28432;BME280;15664;51.302;7.744;2023-04-03T00:59:40;83931.13;;;-146.98;100.00
28432;BME280;15664;51.302;7.744;2023-04-03T01:02:08;84000.38;;;-146.98;100.00
28432;BME280;15664;51.302;7.744;2023-04-03T01:04:36;83949.47;;;-146.98;100.00
28432;BME280;15664;51.302;7.744;2023-04-03T01:07:21;83939.28;;;-146.98;99.76
28432;BME280;15664;51.302;7.744;2023-04-03T01:09:49;83988.16;;;-146.98;99.81
28432;BME280;15664;51.302;7.744;2023-04-03T01:12:22;83988.16;;;-146.98;100.00
28432;BME280;15664;51.302;7.744;2023-04-03T01:14:53;83949.47;;;-146.98;100.00
28432;BME280;15664;51.302;7.744;2023-04-03T01:17:35;83939.28;;;-146.98;100.00
28432;BME280;15664;51.302;7.744;2023-04-03T01:23:17;83982.03;;;-146.98;98.38
28432;BME280;15664;51.302;7.744;2023-04-03T01:25:51;83967.78;;;-146.98;97.46
28432;BME280;15664;51.302;7.744;2023-04-03T01:31:05;83937.25;;;-146.98;96.55
28432;BME280;15664;51.302;7.744;2023-04-03T01:33:35;83935.19;;;-146.98;96.44
28432;BME280;15664;51.302;7.744;2023-04-03T01:36:01;83971.88;;;-146.98;96.06
28432;BME280;15664;51.302;7.744;2023-04-03T01:38:28;83967.78;;;-146.98;96.02
28432;BME280;15664;51.302;7.744;2023-04-03T01:40:54;83933.16;;;-146.98;95.88
28432;BME280;15664;51.302;7.744;2023-04-03T01:43:19;83943.34;;;-146.98;95.90
28432;BME280;15664;51.302;7.744;2023-04-03T01:45:45;83980.00;;;-146.98;95.59
28432;BME280;15664;51.302;7.744;2023-04-03T01:48:12;83963.72;;;-146.98;95.57
28432;BME280;15664;51.302;7.744;2023-04-03T01:50:38;83955.56;;;-146.98;95.55
28432;BME280;15664;51.302;7.744;2023-04-03T01:53:04;83951.50;;;-146.98;95.97
28432;BME280;15664;51.302;7.744;2023-04-03T01:55:29;83951.50;;;-146.98;96.20
28432;BME280;15664;51.302;7.744;2023-04-03T01:57:55;83918.91;;;-146.98;95.91
28432;BME280;15664;51.302;7.744;2023-04-03T02:00:21;83892.44;;;-146.98;95.81
28432;BME280;15664;51.302;7.744;2023-04-03T02:02:46;83861.88;;;-146.98;96.13
28432;BME280;15664;51.302;7.744;2023-04-03T02:05:12;83969.81;;;-146.98;96.02
28432;BME280;15664;51.302;7.744;2023-04-03T02:07:38;83951.50;;;-146.98;95.64
28432;BME280;15664;51.302;7.744;2023-04-03T02:10:04;83931.13;;;-146.98;95.67
28432;BME280;15664;51.302;7.744;2023-04-03T02:12:30;83971.88;;;-146.98;95.95
28432;BME280;15664;51.302;7.744;2023-04-03T02:14:55;83945.38;;;-146.98;96.04
28432;BME280;15664;51.302;7.744;2023-04-03T02:17:21;83931.13;;;-146.98;96.05
28432;BME280;15664;51.302;7.744;2023-04-03T02:19:46;83977.97;;;-146.98;96.12
28432;BME280;15664;51.302;7.744;2023-04-03T02:22:12;83967.78;;;-146.98;96.01
28432;BME280;15664;51.302;7.744;2023-04-03T02:24:37;83980.00;;;-146.98;96.12
28432;BME280;15664;51.302;7.744;2023-04-03T02:27:05;83984.09;;;-146.98;96.31
28432;BME280;15664;51.302;7.744;2023-04-03T02:29:31;83955.56;;;-146.98;96.24
28432;BME280;15664;51.302;7.744;2023-04-03T02:31:56;83975.94;;;-146.98;96.15
28432;BME280;15664;51.302;7.744;2023-04-03T02:34:22;83967.78;;;-146.98;96.54
28432;BME280;15664;51.302;7.744;2023-04-03T02:36:49;83937.25;;;-146.98;96.74
28432;BME280;15664;51.302;7.744;2023-04-03T02:39:15;83927.06;;;-146.98;96.62
28432;BME280;15664;51.302;7.744;2023-04-03T02:41:41;83957.59;;;-146.98;96.71
28432;BME280;15664;51.302;7.744;2023-04-03T02:44:13;83935.19;;;-146.98;96.63
28432;BME280;15664;51.302;7.744;2023-04-03T02:46:39;84026.84;;;-146.98;96.70
28432;BME280;15664;51.302;7.744;2023-04-03T02:49:04;83945.38;;;-146.98;96.99
28432;BME280;15664;51.302;7.744;2023-04-03T02:51:31;83988.16;;;-146.98;96.99
28432;BME280;15664;51.302;7.744;2023-04-03T02:53:57;83975.94;;;-146.98;97.12
28432;BME280;15664;51.302;7.744;2023-04-03T02:56:26;83947.41;;;-146.98;97.14
28432;BME280;15664;51.302;7.744;2023-04-03T02:58:52;83920.94;;;-146.98;97.07
28432;BME280;15664;51.302;7.744;2023-04-03T03:01:18;83943.34;;;-146.98;97.32
28432;BME280;15664;51.302;7.744;2023-04-03T03:03:43;83998.34;;;-146.98;97.46
28432;BME280;15664;51.302;7.744;2023-04-03T03:06:12;83943.34;;;-146.98;97.68
28432;BME280;15664;51.302;7.744;2023-04-03T03:08:39;84008.53;;;-146.98;97.95
28432;BME280;15664;51.302;7.744;2023-04-03T03:11:05;83947.41;;;-146.98;97.91
28432;BME280;15664;51.302;7.744;2023-04-03T03:13:32;83980.00;;;-146.98;98.02
28432;BME280;15664;51.302;7.744;2023-04-03T03:15:58;83939.28;;;-146.98;98.25
28432;BME280;15664;51.302;7.744;2023-04-03T03:18:24;83965.75;;;-146.98;98.64
28432;BME280;15664;51.302;7.744;2023-04-03T03:20:54;83982.03;;;-146.98;98.96
28432;BME280;15664;51.302;7.744;2023-04-03T03:23:20;83992.22;;;-146.98;99.21
28432;BME280;15664;51.302;7.744;2023-04-03T03:25:46;84057.41;;;-146.98;99.54
28432;BME280;15664;51.302;7.744;2023-04-03T03:28:12;83939.28;;;-146.98;99.75
28432;BME280;15664;51.302;7.744;2023-04-03T03:30:37;83998.34;;;-146.98;100.00
28432;BME280;15664;51.302;7.744;2023-04-03T03:33:03;84004.44;;;-146.98;100.00
28432;BME280;15664;51.302;7.744;2023-04-03T03:35:29;83975.94;;;-146.98;100.00
28432;BME280;15664;51.302;7.744;2023-04-03T03:37:54;83971.88;;;-146.98;100.00
28432;BME280;15664;51.302;7.744;2023-04-03T03:40:21;84004.44;;;-146.98;100.00
28432;BME280;15664;51.302;7.744;2023-04-03T03:42:47;84016.69;;;-146.98;100.00
28432;BME280;15664;51.302;7.744;2023-04-03T03:45:12;84012.59;;;-146.98;100.00
28432;BME280;15664;51.302;7.744;2023-04-03T03:47:37;83992.22;;;-146.98;100.00
28432;BME280;15664;51.302;7.744;2023-04-03T03:50:03;83988.16;;;-146.98;100.00
28432;BME280;15664;51.302;7.744;2023-04-03T03:52:28;84006.50;;;-146.98;100.00
28432;BME280;15664;51.302;7.744;2023-04-03T03:54:55;84028.91;;;-146.98;100.00
28432;BME280;15664;51.302;7.744;2023-04-03T03:57:21;83994.28;;;-146.98;100.00
28432;BME280;15664;51.302;7.744;2023-04-03T03:59:47;83973.91;;;-146.98;100.00
28432;BME280;15664;51.302;7.744;2023-04-03T04:02:16;84039.09;;;-146.98;100.00
28432;BME280;15664;51.302;7.744;2023-04-03T04:04:42;84010.56;;;-146.98;100.00
28432;BME280;15664;51.302;7.744;2023-04-03T04:07:08;84024.81;;;-146.98;100.00
28432;BME280;15664;51.302;7.744;2023-04-03T04:09:35;84024.81;;;-146.98;100.00
28432;BME280;15664;51.302;7.744;2023-04-03T04:12:00;84020.75;;;-146.98;100.00
28432;BME280;15664;51.302;7.744;2023-04-03T04:14:29;84002.41;;;-146.98;100.00
28432;BME280;15664;51.302;7.744;2023-04-03T04:16:55;83980.00;;;-146.98;100.00
28432;BME280;15664;51.302;7.744;2023-04-03T04:19:24;84035.00;;;-146.98;100.00
28432;BME280;15664;51.302;7.744;2023-04-03T04:21:49;84049.25;;;-146.98;100.00
28432;BME280;15664;51.302;7.744;2023-04-03T04:24:15;84000.38;;;-146.98;100.00
28432;BME280;15664;51.302;7.744;2023-04-03T04:26:41;84106.28;;;-146.98;100.00
28432;BME280;15664;51.302;7.744;2023-04-03T04:29:09;84000.38;;;-146.98;100.00
28432;BME280;15664;51.302;7.744;2023-04-03T04:31:36;84053.34;;;-146.98;100.00
28432;BME280;15664;51.302;7.744;2023-04-03T04:34:01;84030.94;;;-146.98;100.00
28432;BME280;15664;51.302;7.744;2023-04-03T04:36:27;84059.44;;;-146.98;100.00
28432;BME280;15664;51.302;7.744;2023-04-03T04:38:53;84077.78;;;-146.98;100.00
28432;BME280;15664;51.302;7.744;2023-04-03T04:41:21;84016.69;;;-146.98;100.00
28432;BME280;15664;51.302;7.744;2023-04-03T04:43:49;84051.31;;;-146.98;100.00
28432;BME280;15664;51.302;7.744;2023-04-03T04:46:15;84024.81;;;-146.98;100.00
28432;BME280;15664;51.302;7.744;2023-04-03T04:48:46;84026.84;;;-146.98;100.00
28432;BME280;15664;51.302;7.744;2023-04-03T04:51:13;84018.72;;;-146.98;100.00
28432;BME280;15664;51.302;7.744;2023-04-03T04:53:40;84037.03;;;-146.98;100.00
28432;BME280;15664;51.302;7.744;2023-04-03T04:56:07;84012.59;;;-146.98;100.00
28432;BME280;15664;51.302;7.744;2023-04-03T04:58:35;84071.66;;;-146.98;100.00
28432;BME280;15664;51.302;7.744;2023-04-03T05:01:03;84028.91;;;-146.98;100.00
28432;BME280;15664;51.302;7.744;2023-04-03T05:03:29;84016.69;;;-146.98;100.00
28432;BME280;15664;51.302;7.744;2023-04-03T05:05:55;83998.34;;;-146.98;100.00
28432;BME280;15664;51.302;7.744;2023-04-03T05:08:20;84030.94;;;-146.98;100.00
28432;BME280;15664;51.302;7.744;2023-04-03T05:10:46;84061.47;;;-146.98;100.00
28432;BME280;15664;51.302;7.744;2023-04-03T05:13:13;84018.72;;;-146.98;100.00
28432;BME280;15664;51.302;7.744;2023-04-03T05:15:39;84045.19;;;-146.98;100.00
28432;BME280;15664;51.302;7.744;2023-04-03T05:18:04;84037.03;;;-146.98;100.00
28432;BME280;15664;51.302;7.744;2023-04-03T05:20:31;84081.84;;;-146.98;100.00
28432;BME280;15664;51.302;7.744;2023-04-03T05:22:57;84020.75;;;-146.98;100.00
28432;BME280;15664;51.302;7.744;2023-04-03T05:25:22;83955.56;;;-146.98;100.00
28432;BME280;15664;51.302;7.744;2023-04-03T05:27:48;84028.91;;;-146.98;100.00
28432;BME280;15664;51.302;7.744;2023-04-03T05:30:15;84020.75;;;-146.98;100.00
28432;BME280;15664;51.302;7.744;2023-04-03T05:32:41;84012.59;;;-146.98;100.00
28432;BME280;15664;51.302;7.744;2023-04-03T05:35:16;84079.81;;;-146.98;100.00
28432;BME280;15664;51.302;7.744;2023-04-03T05:37:42;84012.59;;;-146.98;100.00
28432;BME280;15664;51.302;7.744;2023-04-03T05:40:08;84014.63;;;-146.98;100.00
28432;BME280;15664;51.302;7.744;2023-04-03T05:42:35;84055.38;;;-146.98;100.00
28432;BME280;15664;51.302;7.744;2023-04-03T05:45:01;83965.75;;;-146.98;100.00
28432;BME280;15664;51.302;7.744;2023-04-03T05:47:27;83986.13;;;-146.98;100.00
28432;BME280;15664;51.302;7.744;2023-04-03T05:49:52;84012.59;;;-146.98;100.00
28432;BME280;15664;51.302;7.744;2023-04-03T05:52:28;84037.03;;;-146.98;100.00
28432;BME280;15664;51.302;7.744;2023-04-03T05:54:55;84024.81;;;-146.98;100.00
28432;BME280;15664;51.302;7.744;2023-04-03T05:57:24;83998.34;;;-146.98;100.00
28432;BME280;15664;51.302;7.744;2023-04-03T05:59:50;84045.19;;;-146.98;100.00
28432;BME280;15664;51.302;7.744;2023-04-03T06:02:19;84020.75;;;-146.98;100.00
28432;BME280;15664;51.302;7.744;2023-04-03T06:04:46;83996.31;;;-146.98;100.00
28432;BME280;15664;51.302;7.744;2023-04-03T06:07:15;84008.53;;;-146.98;100.00
28432;BME280;15664;51.302;7.744;2023-04-03T06:09:42;83971.88;;;-146.98;100.00
28432;BME280;15664;51.302;7.744;2023-04-03T06:12:08;83996.31;;;-146.98;100.00
28432;BME280;15664;51.302;7.744;2023-04-03T06:14:34;83986.13;;;-146.98;99.66
28432;BME280;15664;51.302;7.744;2023-04-03T06:17:00;84012.59;;;-146.98;99.21
28432;BME280;15664;51.302;7.744;2023-04-03T06:19:27;83963.72;;;-146.98;99.29
28432;BME280;15664;51.302;7.744;2023-04-03T06:21:55;83967.78;;;-146.98;98.49
28432;BME280;15664;51.302;7.744;2023-04-03T06:24:22;83935.19;;;-146.98;98.25
28432;BME280;15664;51.302;7.744;2023-04-03T06:26:50;83959.63;;;-146.98;97.13
28432;BME280;15664;51.302;7.744;2023-04-03T06:29:17;83890.38;;;-146.98;94.49
28432;BME280;15664;51.302;7.744;2023-04-03T06:31:43;83902.63;;;-146.98;92.43
28432;BME280;15664;51.302;7.744;2023-04-03T06:34:09;83898.53;;;-146.98;90.67
28432;BME280;15664;51.302;7.744;2023-04-03T06:36:34;83878.16;;;-146.98;89.85
28432;BME280;15664;51.302;7.744;2023-04-03T06:39:00;83902.63;;;-146.98;87.61
28432;BME280;15664;51.302;7.744;2023-04-03T06:41:26;83865.94;;;-146.98;86.95
28432;BME280;15664;51.302;7.744;2023-04-03T06:43:52;83882.25;;;-146.98;86.07
28432;BME280;15664;51.302;7.744;2023-04-03T06:46:20;83845.59;;;-146.98;85.08
28432;BME280;15664;51.302;7.744;2023-04-03T06:48:46;83800.78;;;-146.98;84.24
28432;BME280;15664;51.302;7.744;2023-04-03T06:51:20;83774.28;;;-146.98;83.66
28432;BME280;15664;51.302;7.744;2023-04-03T06:53:47;83774.28;;;-146.98;83.65
28432;BME280;15664;51.302;7.744;2023-04-03T06:56:13;83802.81;;;-146.98;84.29
28432;BME280;15664;51.302;7.744;2023-04-03T06:58:39;83819.09;;;-146.98;83.68
28432;BME280;15664;51.302;7.744;2023-04-03T07:01:06;83782.44;;;-146.98;81.50
28432;BME280;15664;51.302;7.744;2023-04-03T07:03:31;83727.44;;;-146.98;80.51
28432;BME280;15664;51.302;7.744;2023-04-03T07:05:57;83747.81;;;-146.98;80.79
28432;BME280;15664;51.302;7.744;2023-04-03T07:08:22;83776.34;;;-146.98;78.77
28432;BME280;15664;51.302;7.744;2023-04-03T07:10:49;83739.66;;;-146.98;78.13
28432;BME280;15664;51.302;7.744;2023-04-03T07:13:15;83690.78;;;-146.98;78.12
28432;BME280;15664;51.302;7.744;2023-04-03T07:15:41;83731.53;;;-146.98;78.04
28432;BME280;15664;51.302;7.744;2023-04-03T07:18:06;83747.81;;;-146.98;77.79
28432;BME280;15664;51.302;7.744;2023-04-03T07:20:32;83733.56;;;-146.98;77.56
28432;BME280;15664;51.302;7.744;2023-04-03T07:22:57;83800.78;;;-146.98;76.51
28432;BME280;15664;51.302;7.744;2023-04-03T07:25:23;83711.16;;;-146.98;75.69
28432;BME280;15664;51.302;7.744;2023-04-03T07:27:48;83707.09;;;-146.98;74.01
28432;BME280;15664;51.302;7.744;2023-04-03T07:30:14;83709.13;;;-146.98;75.85
28432;BME280;15664;51.302;7.744;2023-04-03T07:32:41;83743.75;;;-146.98;73.32
28432;BME280;15664;51.302;7.744;2023-04-03T07:35:06;83760.03;;;-146.98;73.75
28432;BME280;15664;51.302;7.744;2023-04-03T07:37:32;83682.66;;;-146.98;72.02
28432;BME280;15664;51.302;7.744;2023-04-03T07:39:58;83686.72;;;-146.98;72.17
28432;BME280;15664;51.302;7.744;2023-04-03T07:42:25;83705.03;;;-146.98;70.90
28432;BME280;15664;51.302;7.744;2023-04-03T07:44:53;83698.94;;;-146.98;69.04
28432;BME280;15664;51.302;7.744;2023-04-03T07:47:19;83658.19;;;-146.98;69.77
28432;BME280;15664;51.302;7.744;2023-04-03T07:49:46;83674.50;;;-146.98;66.58
28432;BME280;15664;51.302;7.744;2023-04-03T07:52:12;83690.78;;;-146.98;65.92
28432;BME280;15664;51.302;7.744;2023-04-03T07:54:40;83707.09;;;-146.98;61.74
28432;BME280;15664;51.302;7.744;2023-04-03T07:57:05;83674.50;;;-146.98;62.83
28432;BME280;15664;51.302;7.744;2023-04-03T07:59:31;83652.09;;;-146.98;62.16
28432;BME280;15664;51.302;7.744;2023-04-03T08:01:57;83707.09;;;-146.98;61.72
28432;BME280;15664;51.302;7.744;2023-04-03T08:04:22;83662.28;;;-146.98;62.16
28432;BME280;15664;51.302;7.744;2023-04-03T08:06:48;83603.22;;;-146.98;55.95
28432;BME280;15664;51.302;7.744;2023-04-03T08:09:14;83629.69;;;-146.98;55.70
28432;BME280;15664;51.302;7.744;2023-04-03T08:11:40;83574.69;;;-146.98;52.63
28432;BME280;15664;51.302;7.744;2023-04-03T08:14:05;83582.84;;;-146.98;52.05
28432;BME280;15664;51.302;7.744;2023-04-03T08:16:31;83564.53;;;-146.98;52.88
28432;BME280;15664;51.302;7.744;2023-04-03T08:18:57;83593.03;;;-146.98;51.97
28432;BME280;15664;51.302;7.744;2023-04-03T08:21:22;83538.03;;;-146.98;49.96
28432;BME280;15664;51.302;7.744;2023-04-03T08:23:49;83578.78;;;-146.98;49.49
28432;BME280;15664;51.302;7.744;2023-04-03T08:26:19;83517.69;;;-146.98;50.46
28432;BME280;15664;51.302;7.744;2023-04-03T08:28:45;83556.38;;;-146.98;47.39
28432;BME280;15664;51.302;7.744;2023-04-03T08:31:13;83582.84;;;-146.98;48.30
28432;BME280;15664;51.302;7.744;2023-04-03T08:33:39;83515.63;;;-146.98;46.62
28432;BME280;15664;51.302;7.744;2023-04-03T08:36:07;83491.19;;;-146.98;45.14
28432;BME280;15664;51.302;7.744;2023-04-03T08:38:33;83487.13;;;-146.98;43.89
28432;BME280;15664;51.302;7.744;2023-04-03T08:41:33;83538.03;;;-146.98;44.83
28432;BME280;15664;51.302;7.744;2023-04-03T08:44:10;83507.50;;;-146.98;43.78
28432;BME280;15664;51.302;7.744;2023-04-03T08:47:23;83478.97;;;-146.98;43.42
28432;BME280;15664;51.302;7.744;2023-04-03T08:49:59;83442.31;;;-146.98;43.17
28432;BME280;15664;51.302;7.744;2023-04-03T08:52:36;83450.47;;;-146.98;41.92
28432;BME280;15664;51.302;7.744;2023-04-03T08:57:54;83472.88;;;-146.98;43.00
28432;BME280;15664;51.302;7.744;2023-04-03T09:00:25;83389.38;;;-146.98;40.42
28432;BME280;15664;51.302;7.744;2023-04-03T09:02:54;83413.81;;;-146.98;40.45
28432;BME280;15664;51.302;7.744;2023-04-03T09:05:32;83360.88;;;-146.98;40.20
28432;BME280;15664;51.302;7.744;2023-04-03T09:08:31;83393.44;;;-146.98;39.62
28432;BME280;15664;51.302;7.744;2023-04-03T09:14:42;83389.38;;;-146.98;39.89
28432;BME280;15664;51.302;7.744;2023-04-03T09:17:03;83324.22;;;-146.98;39.35
28432;BME280;15664;51.302;7.744;2023-04-03T09:24:42;83348.66;;;-146.98;38.47
28432;BME280;15664;51.302;7.744;2023-04-03T09:27:10;83352.72;;;-146.98;37.75
28432;BME280;15664;51.302;7.744;2023-04-03T09:29:40;83305.88;;;-146.98;37.71
28432;BME280;15664;51.302;7.744;2023-04-03T09:32:21;83299.75;;;-146.98;37.77
28432;BME280;15664;51.302;7.744;2023-04-03T09:34:48;83326.25;;;-146.98;36.98
28432;BME280;15664;51.302;7.744;2023-04-03T09:37:42;83305.88;;;-146.98;37.40
28432;BME280;15664;51.302;7.744;2023-04-03T09:42:54;83230.53;;;-146.98;36.35
28432;BME280;15664;51.302;7.744;2023-04-03T09:45:24;83246.81;;;-146.98;36.08
28432;BME280;15664;51.302;7.744;2023-04-03T09:48:05;83153.13;;;-146.98;35.94
28432;BME280;15664;51.302;7.744;2023-04-03T09:50:30;83220.34;;;-146.98;35.47
28432;BME280;15664;51.302;7.744;2023-04-03T09:52:56;83208.13;;;-146.98;35.41
28432;BME280;15664;51.302;7.744;2023-04-03T09:55:23;83210.16;;;-146.98;34.71
28432;BME280;15664;51.302;7.744;2023-04-03T09:58:02;83153.13;;;-146.98;36.12
28432;BME280;15664;51.302;7.744;2023-04-03T10:00:35;83167.41;;;-146.98;35.03
28432;BME280;15664;51.302;7.744;2023-04-03T10:03:02;83171.47;;;-146.98;34.54
28432;BME280;15664;51.302;7.744;2023-04-03T10:05:33;83157.22;;;-146.98;34.64
28432;BME280;15664;51.302;7.744;2023-04-03T10:08:30;83140.91;;;-146.98;33.42
28432;BME280;15664;51.302;7.744;2023-04-03T10:11:13;83210.16;;;-146.98;32.75
28432;BME280;15664;51.302;7.744;2023-04-03T10:13:55;83149.06;;;-146.98;33.04
28432;BME280;15664;51.302;7.744;2023-04-03T10:16:29;83189.78;;;-146.98;32.91
28432;BME280;15664;51.302;7.744;2023-04-03T10:19:34;83104.25;;;-146.98;33.21
28432;BME280;15664;51.302;7.744;2023-04-03T10:22:09;83145.00;;;-146.98;33.10
28432;BME280;15664;51.302;7.744;2023-04-03T10:24:58;83136.84;;;-146.98;33.31
28432;BME280;15664;51.302;7.744;2023-04-03T10:27:42;83145.00;;;-146.98;33.59
28432;BME280;15664;51.302;7.744;2023-04-03T10:30:28;83047.25;;;-146.98;31.57
28432;BME280;15664;51.302;7.744;2023-04-03T10:33:36;83033.00;;;-146.98;33.53
28432;BME280;15664;51.302;7.744;2023-04-03T10:36:21;83002.44;;;-146.98;32.31
28432;BME280;15664;51.302;7.744;2023-04-03T10:47:03;82908.78;;;-146.98;31.29
28432;BME280;15664;51.302;7.744;2023-04-03T10:52:20;82965.78;;;-146.98;32.14
28432;BME280;15664;51.302;7.744;2023-04-03T10:57:53;82839.53;;;-146.98;31.09
28432;BME280;15664;51.302;7.744;2023-04-03T11:00:26;82896.56;;;-146.98;30.76
28432;BME280;15664;51.302;7.744;2023-04-03T11:03:03;82870.09;;;-146.98;31.22
28432;BME280;15664;51.302;7.744;2023-04-03T11:05:36;82876.19;;;-146.98;31.19
28432;BME280;15664;51.302;7.744;2023-04-03T11:08:26;82827.34;;;-146.98;30.15
28432;BME280;15664;51.302;7.744;2023-04-03T11:10:57;82861.94;;;-146.98;30.02
28432;BME280;15664;51.302;7.744;2023-04-03T11:13:50;82827.34;;;-146.98;31.34
28432;BME280;15664;51.302;7.744;2023-04-03T11:16:24;82868.06;;;-146.98;30.49
28432;BME280;15664;51.302;7.744;2023-04-03T11:19:02;82811.03;;;-146.98;31.07
28432;BME280;15664;51.302;7.744;2023-04-03T11:21:41;82743.84;;;-146.98;31.35
28432;BME280;15664;51.302;7.744;2023-04-03T11:24:20;82782.53;;;-146.98;30.79
28432;BME280;15664;51.302;7.744;2023-04-03T11:26:48;82827.34;;;-146.98;29.62
28432;BME280;15664;51.302;7.744;2023-04-03T11:29:19;82863.97;;;-146.98;30.09
28432;BME280;15664;51.302;7.744;2023-04-03T11:32:01;82857.88;;;-146.98;30.90
28432;BME280;15664;51.302;7.744;2023-04-03T11:34:35;82894.53;;;-146.98;31.50
28432;BME280;15664;51.302;7.744;2023-04-03T11:37:50;82802.91;;;-146.98;31.05
28432;BME280;15664;51.302;7.744;2023-04-03T11:39:58;82851.75;;;-146.98;31.92
28432;BME280;15664;51.302;7.744;2023-04-03T11:47:54;82835.47;;;-146.98;31.43
28432;BME280;15664;51.302;7.744;2023-04-03T12:05:54;82890.44;;;-146.98;32.17
28432;BME280;15664;51.302;7.744;2023-04-03T12:08:29;82827.34;;;-146.98;32.10
28432;BME280;15664;51.302;7.744;2023-04-03T12:16:29;82841.59;;;-146.98;31.81
28432;BME280;15664;51.302;7.744;2023-04-03T12:26:46;82811.03;;;-146.98;32.12
28432;BME280;15664;51.302;7.744;2023-04-03T12:29:29;82845.66;;;-146.98;32.32
28432;BME280;15664;51.302;7.744;2023-04-03T12:32:23;82945.44;;;-146.98;32.66
28432;BME280;15664;51.302;7.744;2023-04-03T12:38:05;82749.94;;;-146.98;31.48
28432;BME280;15664;51.302;7.744;2023-04-03T12:40:46;82717.38;;;-146.98;30.70
28432;BME280;15664;51.302;7.744;2023-04-03T12:46:12;82660.34;;;-146.98;30.52
28432;BME280;15664;51.302;7.744;2023-04-03T12:48:52;82648.16;;;-146.98;30.80
28432;BME280;15664;51.302;7.744;2023-04-03T12:51:35;82658.31;;;-146.98;30.40
28432;BME280;15664;51.302;7.744;2023-04-03T12:54:13;82623.72;;;-146.98;30.39
28432;BME280;15664;51.302;7.744;2023-04-03T12:56:40;82574.84;;;-146.98;30.66
28432;BME280;15664;51.302;7.744;2023-04-03T12:59:23;82672.56;;;-146.98;30.28
28432;BME280;15664;51.302;7.744;2023-04-03T13:02:00;82640.00;;;-146.98;30.58
28432;BME280;15664;51.302;7.744;2023-04-03T13:04:31;82599.28;;;-146.98;30.08
28432;BME280;15664;51.302;7.744;2023-04-03T13:06:57;82546.34;;;-146.98;30.47
28432;BME280;15664;51.302;7.744;2023-04-03T13:09:28;82599.28;;;-146.98;30.62
28432;BME280;15664;51.302;7.744;2023-04-03T13:12:30;82644.06;;;-146.98;31.26
28432;BME280;15664;51.302;7.744;2023-04-03T13:14:54;82635.94;;;-146.98;31.14
28432;BME280;15664;51.302;7.744;2023-04-03T13:17:21;82615.56;;;-146.98;30.74
28432;BME280;15664;51.302;7.744;2023-04-03T13:19:47;82619.63;;;-146.98;30.36
28432;BME280;15664;51.302;7.744;2023-04-03T13:22:34;82623.72;;;-146.98;31.45
28432;BME280;15664;51.302;7.744;2023-04-03T13:25:07;82589.09;;;-146.98;30.44
28432;BME280;15664;51.302;7.744;2023-04-03T13:27:34;82538.19;;;-146.98;30.10
28432;BME280;15664;51.302;7.744;2023-04-03T13:30:01;82511.72;;;-146.98;29.11
28432;BME280;15664;51.302;7.744;2023-04-03T13:32:30;82562.63;;;-146.98;29.79
28432;BME280;15664;51.302;7.744;2023-04-03T13:34:57;82635.94;;;-146.98;29.91
28432;BME280;15664;51.302;7.744;2023-04-03T13:37:26;82627.78;;;-146.98;30.26
28432;BME280;15664;51.302;7.744;2023-04-03T13:42:26;82530.03;;;-146.98;29.96
28432;BME280;15664;51.302;7.744;2023-04-03T13:47:43;82440.47;;;-146.98;29.17
28432;BME280;15664;51.302;7.744;2023-04-03T13:50:14;82424.16;;;-146.98;28.57
28432;BME280;15664;51.302;7.744;2023-04-03T13:52:44;82627.78;;;-146.98;29.50
28432;BME280;15664;51.302;7.744;2023-04-03T13:57:58;82603.34;;;-146.98;30.39
28432;BME280;15664;51.302;7.744;2023-04-03T14:00:49;82570.78;;;-146.98;29.77
28432;BME280;15664;51.302;7.744;2023-04-03T14:03:28;82576.88;;;-146.98;30.31
28432;BME280;15664;51.302;7.744;2023-04-03T14:05:54;82499.50;;;-146.98;30.45
28432;BME280;15664;51.302;7.744;2023-04-03T14:08:20;82523.94;;;-146.98;30.01
28432;BME280;15664;51.302;7.744;2023-04-03T14:10:46;82473.03;;;-146.98;30.10
28432;BME280;15664;51.302;7.744;2023-04-03T14:13:14;82560.59;;;-146.98;30.33
28432;BME280;15664;51.302;7.744;2023-04-03T14:15:41;82589.09;;;-146.98;30.55